Latest Weather Observations for Bunbury

IDW60801

Issued at 9:32 pm WST Monday 22 December 2014 (issued every 30 minutes, with the page automatically refreshed every 10 minutes)

About weather observations | Map of weather stations | Latest weather observations for WA | Other Formats
Station Details ID: 009965 Name: BUNBURY Lat: -33.36 Lon: 115.64 Height: 5.2 m
Data from the previous 72 hours. | See also: Recent months at Bunbury
Date/Time
WST
Temp
°C
App
Temp
°C
Dew
Point
Rel
Hum
%
Delta-T
°C
Wind Press
QNH
hPa
Press
MSL
hPa
Rain
since 9 am
mm
Dir
 
Spd
km/h
Gust
km/h
Spd
kts
Gust
kts
22/09:30pm 17.3 13.8 10.2 63 3.8 SSE 19 30 10 16 1018.6 1018.5 0.0
22/09:00pm 17.4 13.9 10.3 63 3.8 SSE 19 28 10 15 1018.3 1018.2 0.0
22/08:30pm 17.7 14.2 10.3 62 3.9 S 19 28 10 15 1018.0 1017.9 0.0
22/08:00pm 18.1 14.1 10.5 61 4.1 S 22 33 12 18 1017.7 1017.6 0.0
22/07:30pm 18.6 14.6 10.4 59 4.4 S 22 33 12 18 1017.6 1017.5 0.0
22/07:00pm 20.2 16.2 10.6 54 5.2 S 22 35 12 19 1017.2 1017.1 0.0
22/06:30pm 21.9 16.8 10.7 49 6.1 S 28 37 15 20 1016.8 1016.7 0.0
22/06:00pm 23.9 19.6 10.9 44 7.2 SSW 24 35 13 19 1016.3 1016.2 0.0
22/05:30pm 24.9 20.2 10.8 41 7.9 SSW 26 35 14 19 1015.9 1015.8 0.0
22/05:00pm 23.9 21.6 14.0 54 5.8 W 19 28 10 15 1015.8 1015.7 0.0
22/04:30pm 23.4 20.6 12.7 51 6.1 W 19 28 10 15 1016.1 1016.0 0.0
22/04:00pm 23.0 19.6 12.6 52 5.9 W 22 30 12 16 1016.3 1016.2 0.0
22/03:30pm 22.8 19.5 11.5 49 6.3 W 20 30 11 16 1016.4 1016.3 0.0
22/03:00pm 22.1 18.2 13.2 57 5.1 WSW 26 37 14 20 1016.7 1016.6 0.0
22/02:30pm 22.6 19.1 13.4 56 5.3 W 24 32 13 17 1016.8 1016.7 0.0
22/02:00pm 22.8 19.1 11.5 49 6.3 W 22 32 12 17 1017.1 1017.0 0.0
22/01:30pm 22.5 18.9 11.9 51 6.0 W 22 28 12 15 1017.5 1017.4 0.0
22/01:00pm 22.0 18.9 12.3 54 5.5 W 20 28 11 15 1017.8 1017.7 0.0
22/12:30pm 22.8 20.3 12.4 52 5.9 W 17 24 9 13 1017.9 1017.8 0.0
22/12:00pm 22.6 19.9 12.8 54 5.6 W 19 26 10 14 1018.2 1018.1 0.0
22/11:30am 22.2 19.5 11.6 51 5.9 WNW 17 22 9 12 1018.5 1018.4 0.0
22/11:00am 23.0 22.0 10.4 45 6.9 NE 6 9 3 5 1018.6 1018.5 0.0
22/10:30am 23.0 21.5 10.4 45 6.9 E 9 19 5 10 1018.8 1018.7 0.0
22/10:00am 21.8 19.5 10.6 49 6.1 SE 13 20 7 11 1019.0 1018.9 0.0
22/09:30am 21.3 19.5 10.8 51 5.7 SE 11 17 6 9 1019.1 1019.0 0.0
22/09:00am 20.5 17.8 10.3 52 5.5 ESE 15 20 8 11 1019.2 1019.1 0.0
22/08:30am 19.2 16.0 9.9 55 5.0 SE 17 26 9 14 1019.5 1019.4 0.0
22/08:00am 18.4 14.1 9.5 56 4.7 SE 22 32 12 17 1019.3 1019.2 0.0
22/07:30am 17.1 12.7 9.0 59 4.2 SE 22 30 12 16 1019.3 1019.2 0.0
22/07:00am 16.3 12.5 9.0 62 3.7 ESE 19 28 10 15 1019.3 1019.2 0.0
22/06:30am 14.4 11.8 9.4 72 2.6 SE 13 19 7 10 1019.2 1019.1 0.0
22/06:00am 13.2 11.4 9.3 77 2.0 SSE 9 13 5 7 1019.0 1018.9 0.0
22/05:30am 12.2 10.3 9.0 81 1.6 SE 9 13 5 7 1018.6 1018.5 0.0
22/05:00am 12.0 10.1 9.0 82 1.5 SSE 9 13 5 7 1018.3 1018.2 0.0
22/04:30am 12.5 9.8 9.1 80 1.7 SSE 13 17 7 9 1018.0 1017.9 0.0
22/04:00am 12.6 10.3 9.1 79 1.8 SSE 11 15 6 8 1017.8 1017.7 0.0
22/03:30am 12.7 10.8 9.2 79 1.8 SE 9 13 5 7 1017.4 1017.3 0.0
22/03:00am 13.1 11.2 9.2 77 2.0 SE 9 11 5 6 1017.6 1017.5 0.0
22/02:30am 13.7 11.4 9.0 73 2.4 SE 11 15 6 8 1017.6 1017.5 0.0
22/02:00am 14.3 11.6 9.1 71 2.6 SE 13 19 7 10 1017.6 1017.5 0.0
22/01:30am 14.8 12.6 9.4 70 2.8 SSE 11 15 6 8 1017.7 1017.6 0.0
22/01:00am 15.3 13.1 9.4 68 3.0 SSE 11 20 6 11 1017.9 1017.8 0.0
22/12:30am 15.7 13.5 9.4 66 3.3 SE 11 15 6 8 1018.0 1017.9 0.0
22/12:00am 16.3 14.1 9.5 64 3.5 SE 11 19 6 10 1018.1 1018.0 0.0
 
Date/Time
WST
Temp
°C
App
Temp
°C
Dew
Point
Rel
Hum
%
Delta-T
°C
Wind Press
QNH
hPa
Press
MSL
hPa
Rain
since 9 am
mm
Dir
 
Spd
km/h
Gust
km/h
Spd
kts
Gust
kts
21/11:30pm 16.5 14.4 9.9 65 3.5 SE 11 19 6 10 1018.2 1018.1 0.0
21/11:00pm 16.6 14.3 10.5 67 3.2 SSE 13 20 7 11 1018.2 1018.1 0.0
21/10:30pm 17.0 14.7 10.4 65 3.5 SSE 13 20 7 11 1018.2 1018.1 0.0
21/10:00pm 17.4 14.7 10.5 64 3.7 SSE 15 20 8 11 1018.2 1018.1 0.0
21/09:30pm 18.0 15.7 10.6 62 4.0 SSE 13 20 7 11 1018.0 1017.9 0.0
21/09:00pm 18.6 16.0 10.7 60 4.3 S 15 24 8 13 1017.7 1017.6 0.0
21/08:30pm 19.4 16.4 10.7 57 4.7 S 17 28 9 15 1017.3 1017.2 0.0
21/08:00pm 20.3 16.7 10.7 54 5.2 S 20 32 11 17 1017.0 1016.9 0.0
21/07:30pm 21.4 18.2 11.1 52 5.7 S 19 30 10 16 1016.7 1016.6 0.0
21/07:00pm 22.9 19.7 11.3 48 6.5 S 19 26 10 14 1016.3 1016.2 0.0
21/06:30pm 24.3 24.3 13.5 51 6.3 SSW 6 7 3 4 1016.0 1015.9 0.0
21/06:00pm 23.8 23.0 13.9 54 5.8 SW 11 13 6 7 1015.9 1015.8 0.0
21/05:30pm 23.5 21.3 12.2 49 6.4 SW 15 20 8 11 1016.2 1016.1 0.0
21/05:00pm 24.2 22.1 12.5 48 6.7 SW 15 24 8 13 1016.2 1016.1 0.0
21/04:30pm 24.1 20.9 11.8 46 7.0 WSW 20 28 11 15 1016.3 1016.2 0.0
21/04:00pm 23.9 21.8 13.7 53 6.0 W 17 26 9 14 1016.5 1016.4 0.0
21/03:30pm 25.9 25.0 12.7 44 7.7 S 9 17 5 9 1016.7 1016.6 0.0
21/03:00pm 26.6 24.6 10.3 36 9.1 SE 11 22 6 12 1016.8 1016.7 0.0
21/02:30pm 25.7 22.9 9.9 37 8.7 SE 15 24 8 13 1017.2 1017.1 0.0
21/02:00pm 25.4 23.1 10.4 39 8.3 E 13 22 7 12 1017.5 1017.4 0.0
21/01:30pm 25.7 23.6 11.1 40 8.2 SE 13 26 7 14 1017.7 1017.6 0.0
21/01:00pm 25.0 22.8 10.8 41 7.9 SE 13 24 7 13 1018.1 1018.0 0.0
21/12:30pm 24.5 22.0 11.1 43 7.5 ESE 15 32 8 17 1018.5 1018.4 0.0
21/12:00pm 24.0 21.9 11.3 45 7.1 ESE 13 28 7 15 1018.8 1018.7 0.0
21/11:30am 23.4 20.1 11.5 47 6.7 ESE 20 32 11 17 1019.0 1018.9 0.0
21/11:00am 22.9 19.6 11.0 47 6.6 ESE 19 32 10 17 1019.0 1018.9 0.0
21/10:30am 22.2 18.8 11.3 50 6.1 SE 20 33 11 18 1019.2 1019.1 0.0
21/10:00am 21.2 17.4 11.0 52 5.6 SE 22 37 12 20 1019.5 1019.4 0.0
21/09:30am 19.5 15.3 11.0 58 4.6 SE 24 33 13 18 1019.7 1019.6 0.0
21/09:00am 19.1 15.7 11.2 60 4.3 SE 20 32 11 17 1019.7 1019.6 0.0
21/08:30am 18.8 15.1 11.4 62 4.0 SE 22 33 12 18 1019.6 1019.5 0.0
21/08:00am 17.8 14.7 11.6 67 3.4 SSE 19 26 10 14 1019.6 1019.5 0.0
21/07:30am 17.8 14.4 11.1 65 3.6 SE 20 28 11 15 1019.6 1019.5 0.0
21/07:00am 17.4 14.2 11.2 67 3.3 SE 19 30 10 16 1019.5 1019.4 0.0
21/06:30am 16.9 13.7 11.4 70 3.0 SSE 19 30 10 16 1019.2 1019.1 0.0
21/06:00am 16.5 13.2 11.6 73 2.6 SSE 20 33 11 18 1018.8 1018.7 0.0
21/05:30am 16.4 14.4 12.8 79 2.0 SSE 15 26 8 14 1018.3 1018.2 0.0
21/05:00am 16.1 15.5 13.4 84 1.5 SSE 9 13 5 7 1018.3 1018.2 0.0
21/04:30am 15.3 15.2 13.2 87 1.2 S 6 11 3 6 1017.8 1017.7 0.0
21/04:00am 13.9 13.5 12.5 91 0.8 SSW 6 7 3 4 1017.6 1017.5 0.0
21/03:30am 14.2 13.2 12.4 89 1.0 S 9 13 5 7 1017.4 1017.3 0.0
21/03:00am 14.0 13.3 11.9 87 1.1 S 7 11 4 6 1017.2 1017.1 0.0
21/02:30am 14.3 13.7 11.8 85 1.3 SSW 6 7 3 4 1017.2 1017.1 0.0
21/02:00am 14.3 13.6 11.3 82 1.6 SSW 6 9 3 5 1017.3 1017.2 0.0
21/01:30am 15.4 14.2 11.6 78 2.0 SSE 9 13 5 7 1017.3 1017.2 0.0
21/01:00am 15.5 13.5 11.5 77 2.1 S 13 17 7 9 1017.5 1017.4 0.0
21/12:30am 16.1 14.4 11.3 73 2.6 S 11 15 6 8 1017.6 1017.5 0.0
21/12:00am 17.2 14.7 11.2 68 3.2 SSE 15 20 8 11 1017.3 1017.2 0.0
 
Date/Time
WST
Temp
°C
App
Temp
°C
Dew
Point
Rel
Hum
%
Delta-T
°C
Wind Press
QNH
hPa
Press
MSL
hPa
Rain
since 9 am
mm
Dir
 
Spd
km/h
Gust
km/h
Spd
kts
Gust
kts
20/11:30pm 17.7 14.9 11.3 66 3.5 SSE 17 26 9 14 1017.2 1017.1 0.0
20/11:00pm 17.8 15.4 11.4 66 3.5 SSE 15 22 8 12 1017.2 1017.1 0.0
20/10:30pm 18.1 15.3 11.2 64 3.7 SE 17 33 9 18 1017.0 1016.9 0.0
20/10:00pm 18.3 15.9 11.4 64 3.8 SSE 15 20 8 11 1016.8 1016.7 0.0
20/09:30pm 18.7 16.4 11.8 64 3.8 S 15 24 8 13 1016.6 1016.5 0.0
20/09:00pm 19.2 16.5 11.7 62 4.1 S 17 24 9 13 1016.2 1016.1 0.0
20/08:30pm 19.8 17.1 11.6 59 4.5 S 17 24 9 13 1015.7 1015.6 0.0
20/08:00pm 20.7 17.9 11.3 55 5.2 S 17 24 9 13 1015.1 1015.0 0.0
20/07:30pm 21.8 18.6 10.0 47 6.4 SSE 17 24 9 13 1014.5 1014.4 0.0
20/07:00pm 22.9 19.1 9.7 43 7.2 SSE 20 32 11 17 1013.6 1013.6 0.0
20/06:30pm 23.6 18.5 9.2 40 7.8 SSE 26 41 14 22 1013.0 1013.0 0.0
20/06:00pm 24.3 19.9 9.1 38 8.2 SE 22 39 12 21 1012.4 1012.4 0.0
20/05:30pm 25.0 19.5 9.3 37 8.6 SSE 28 43 15 23 1011.9 1011.9 0.0
20/05:08pm 25.4 19.2 9.3 36 8.8 SSE 32 50 17 27 1011.5 1011.5 0.0
20/05:00pm 25.8 20.0 9.6 36 8.9 SSE 30 41 16 22 1011.3 1011.3 0.0
20/04:30pm 26.2 20.9 10.0 36 9.0 SSE 28 43 15 23 1010.9 1010.9 0.0
20/04:00pm 26.7 21.1 10.0 35 9.3 SSE 30 46 16 25 1010.8 1010.8 0.0
20/03:55pm 27.7 22.4 10.0 33 9.9 SSE 28 46 15 25 1010.8 1010.8 0.0
20/03:30pm 27.5 22.6 9.8 33 9.8 SSE 26 46 14 25 1010.6 1010.6 0.0
20/03:00pm 27.9 22.4 9.2 31 10.3 S 28 43 15 23 1010.4 1010.4 0.0
20/02:30pm 27.9 22.2 9.7 32 10.1 S 30 46 16 25 1010.3 1010.3 0.0
20/02:09pm 27.9 22.7 10.1 33 10.0 SSE 28 52 15 28 1010.2 1010.2 0.0
20/02:00pm 28.2 23.3 11.3 35 9.7 S 28 39 15 21 1010.3 1010.3 0.0
20/01:30pm 27.9 22.0 12.3 38 9.1 S 35 52 19 28 1010.1 1010.1 0.0
20/01:12pm 27.6 23.0 12.4 39 8.8 S 28 46 15 25 1009.9 1009.9 0.0
20/01:00pm 27.6 22.5 13.2 41 8.5 S 32 46 17 25 1010.0 1010.0 0.0
20/12:30pm 27.0 23.2 13.7 44 7.9 S 26 37 14 20 1009.9 1009.9 0.0
20/12:17pm 26.4 21.4 13.5 45 7.6 SSE 32 50 17 27 1010.0 1010.0 0.0
20/12:00pm 25.6 21.7 14.4 50 6.7 S 28 41 15 22 1010.0 1010.0 0.0
20/11:30am 25.4 21.1 15.4 54 6.0 S 32 46 17 25 1009.8 1009.8 0.0
20/11:00am 25.2 20.9 15.8 56 5.7 S 33 48 18 26 1009.6 1009.6 0.0
20/10:30am 25.4 21.5 15.4 54 6.0 S 30 44 16 24 1009.4 1009.4 0.0
20/10:00am 25.3 21.9 15.9 56 5.7 SSW 28 41 15 22 1009.1 1009.1 0.0
20/09:30am 24.9 22.0 15.2 54 5.8 SSE 24 37 13 20 1009.1 1009.1 0.0
20/09:00am 23.7 19.9 14.7 57 5.3 S 28 37 15 20 1009.1 1009.1 0.4
20/08:30am 23.2 20.1 14.5 58 5.1 S 24 33 13 18 1009.1 1009.1 0.4
20/08:00am 21.9 18.9 13.8 60 4.7 S 22 37 12 20 1009.2 1009.2 0.4
20/07:30am 21.2 18.3 13.9 63 4.2 S 22 32 12 17 1009.3 1009.3 0.4
20/07:00am 20.1 17.2 14.0 68 3.5 S 22 32 12 17 1009.2 1009.2 0.4
20/06:30am 19.3 17.2 14.6 74 2.7 S 19 26 10 14 1009.1 1009.1 0.4
20/06:00am 18.1 15.8 14.2 78 2.2 S 19 30 10 16 1008.8 1008.8 0.4
20/05:30am 18.0 16.4 13.9 77 2.3 SSW 15 22 8 12 1008.5 1008.5 0.4
20/05:00am 18.5 17.2 13.6 73 2.8 SSW 13 19 7 10 1007.8 1007.8 0.4
20/04:30am 19.5 18.2 12.5 64 3.9 SSW 11 15 6 8 1007.5 1007.5 0.4
20/04:00am 19.2 18.1 13.2 68 3.4 S 11 15 6 8 1007.3 1007.3 0.4
20/03:30am 19.2 18.5 13.2 68 3.4 S 9 11 5 6 1007.0 1007.0 0.4
20/03:00am 19.3 18.3 13.5 69 3.3 SSW 11 13 6 7 1007.1 1007.1 0.4
20/02:30am 20.8 20.0 12.8 60 4.5 SSE 9 13 5 7 1007.3 1007.3 0.4
20/02:00am 20.8 20.1 13.3 62 4.3 SSE 9 11 5 6 1007.6 1007.6 0.4
20/01:30am 20.3 19.6 14.2 68 3.5 S 11 13 6 7 1008.0 1008.0 0.4
20/01:00am 20.9 20.1 14.1 65 4.0 SE 11 19 6 10 1008.5 1008.5 0.4
20/12:30am 21.2 20.2 14.6 66 3.9 SSE 13 22 7 12 1008.8 1008.8 0.4
20/12:00am 22.8 22.1 14.4 59 4.9 SSE 11 20 6 11 1009.4 1009.4 0.0
 
Date/Time
WST
Temp
°C
App
Temp
°C
Dew
Point
Rel
Hum
%
Delta-T
°C
Wind Press
QNH
hPa
Press
MSL
hPa
Rain
since 9 am
mm
Dir
 
Spd
km/h
Gust
km/h
Spd
kts
Gust
kts
19/11:30pm 22.4 21.2 15.0 63 4.4 SSE 15 20 8 11 1009.5 1009.5 0.0
19/11:00pm 22.2 21.5 15.5 66 4.0 S 13 20 7 11 1010.1 1010.1 0.0
19/10:30pm 22.8 22.1 15.4 63 4.4 SSE 13 24 7 13 1009.9 1009.9 0.0
19/10:00pm 23.0 22.4 15.6 63 4.4 SSE 13 22 7 12 1010.2 1010.2 0.0

Other Formats:

Comma delimited format used in spreadsheet applications
http://www.bom.gov.au/fwo/IDW60801/IDW60801.94604.axf

JavaScript Object Notation format (JSON) in row-major order
http://www.bom.gov.au/fwo/IDW60801/IDW60801.94604.json